createdAt,value
2022-12-26T00:01:24.025Z,62.20
2022-12-26T00:03:51.677Z,61.83
2022-12-26T00:06:26.543Z,61.70
2022-12-26T00:08:55.326Z,60.60
2022-12-26T00:11:24.182Z,62.90
2022-12-26T00:14:01.191Z,62.47
2022-12-26T00:16:29.026Z,62.83
2022-12-26T00:18:56.491Z,62.37
2022-12-26T00:21:27.128Z,61.00
2022-12-26T00:23:56.572Z,61.13
2022-12-26T00:26:25.976Z,62.37
2022-12-26T00:28:55.516Z,61.10
2022-12-26T00:31:32.519Z,62.53
2022-12-26T00:34:01.474Z,65.97
2022-12-26T00:36:32.318Z,63.33
2022-12-26T00:39:01.879Z,62.50
2022-12-26T00:41:29.901Z,63.10
2022-12-26T00:43:57.597Z,62.13
2022-12-26T00:46:25.760Z,63.43
2022-12-26T00:48:53.140Z,60.97
2022-12-26T00:51:20.837Z,62.73
2022-12-26T00:53:47.969Z,62.27
2022-12-26T00:56:15.960Z,62.57
2022-12-26T00:58:43.975Z,62.70
2022-12-26T01:01:18.539Z,63.13
2022-12-26T01:03:47.713Z,62.77
2022-12-26T01:06:15.592Z,62.67
2022-12-26T01:08:42.919Z,63.13
2022-12-26T01:11:14.224Z,62.47
2022-12-26T01:13:41.988Z,63.13
2022-12-26T01:16:09.882Z,62.37
2022-12-26T01:18:37.210Z,64.10
2022-12-26T01:21:10.779Z,64.33
2022-12-26T01:23:37.840Z,65.63
2022-12-26T01:26:16.616Z,64.27
2022-12-26T01:28:51.876Z,63.27
2022-12-26T01:31:21.580Z,63.93
2022-12-26T01:33:48.993Z,62.83
2022-12-26T01:36:17.853Z,62.97
2022-12-26T01:38:45.682Z,63.10
2022-12-26T01:41:21.964Z,63.97
2022-12-26T01:43:57.540Z,63.63
2022-12-26T01:46:45.546Z,63.13
2022-12-26T01:49:36.847Z,63.67
2022-12-26T01:52:10.090Z,64.87
2022-12-26T01:54:43.068Z,62.10
2022-12-26T01:57:27.365Z,64.03
2022-12-26T01:59:57.394Z,63.37
2022-12-26T02:02:28.043Z,62.87
2022-12-26T02:05:14.421Z,63.13
2022-12-26T02:07:45.740Z,62.60
2022-12-26T02:10:20.691Z,63.40
2022-12-26T02:12:48.625Z,64.70
2022-12-26T02:15:17.777Z,61.90
2022-12-26T02:17:46.935Z,62.50
2022-12-26T02:20:25.490Z,63.07
2022-12-26T02:23:22.989Z,62.30
2022-12-26T02:26:23.823Z,63.13
2022-12-26T02:29:47.256Z,63.10
2022-12-26T02:32:39.941Z,60.93
2022-12-26T02:35:44.554Z,62.90
2022-12-26T02:38:47.966Z,62.77
2022-12-26T02:41:26.185Z,61.57
2022-12-26T02:44:31.177Z,61.63
2022-12-26T02:48:02.693Z,61.87
2022-12-26T02:51:12.724Z,60.90
2022-12-26T02:54:16.448Z,61.73
2022-12-26T02:57:08.772Z,61.03
2022-12-26T03:00:12.711Z,62.33
2022-12-26T03:03:06.480Z,61.93
2022-12-26T03:06:04.423Z,64.27
2022-12-26T03:08:56.811Z,62.93
2022-12-26T03:11:50.959Z,63.60
2022-12-26T03:14:24.638Z,64.17
2022-12-26T03:17:20.151Z,65.17
2022-12-26T03:20:01.818Z,64.70
2022-12-26T03:22:49.111Z,65.10
2022-12-26T03:26:04.556Z,64.23
2022-12-26T03:28:32.248Z,65.13
2022-12-26T03:31:14.434Z,64.27
2022-12-26T03:34:04.215Z,64.60
2022-12-26T03:37:48.269Z,62.43
2022-12-26T03:40:45.518Z,63.90
2022-12-26T03:43:59.431Z,62.87
2022-12-26T03:47:43.013Z,61.60
2022-12-26T03:51:08.076Z,61.50
2022-12-26T03:54:09.520Z,62.40
2022-12-26T03:57:04.338Z,61.07
2022-12-26T04:00:30.783Z,61.13
2022-12-26T04:03:31.758Z,62.23
2022-12-26T04:06:22.830Z,59.03
2022-12-26T04:09:22.349Z,60.30
2022-12-26T04:12:08.052Z,60.80
2022-12-26T04:15:19.428Z,60.67
2022-12-26T04:18:18.046Z,58.80
2022-12-26T04:21:36.528Z,59.00
2022-12-26T04:24:37.607Z,58.50
2022-12-26T04:27:25.120Z,58.53
2022-12-26T04:30:10.957Z,59.27
2022-12-26T04:33:04.952Z,58.43
2022-12-26T04:36:12.116Z,57.97
2022-12-26T04:39:04.154Z,57.27
2022-12-26T04:41:52.555Z,57.33
2022-12-26T04:44:24.427Z,57.90
2022-12-26T04:46:53.783Z,56.93
2022-12-26T04:49:39.993Z,57.00
2022-12-26T04:52:14.643Z,57.47
2022-12-26T04:54:42.450Z,57.47
2022-12-26T04:57:11.283Z,57.17
2022-12-26T04:59:38.449Z,57.77
2022-12-26T05:02:23.956Z,57.17
2022-12-26T05:05:09.363Z,57.37
2022-12-26T05:07:55.874Z,57.67
2022-12-26T05:10:27.735Z,55.83
2022-12-26T05:12:56.075Z,56.33
2022-12-26T05:15:23.447Z,57.53
2022-12-26T05:18:08.901Z,55.87
2022-12-26T05:20:38.570Z,55.80
2022-12-26T05:23:32.515Z,56.83
2022-12-26T05:26:17.869Z,56.67
2022-12-26T05:28:45.661Z,56.10
2022-12-26T05:31:17.984Z,56.60
2022-12-26T05:34:04.000Z,55.80
2022-12-26T05:36:40.113Z,56.13
2022-12-26T05:39:09.240Z,55.77
2022-12-26T05:41:37.457Z,56.47
2022-12-26T05:44:05.286Z,55.23
2022-12-26T05:46:33.040Z,55.70
2022-12-26T05:49:00.186Z,55.80
2022-12-26T05:51:27.536Z,55.27
2022-12-26T05:53:55.077Z,55.50
2022-12-26T05:56:22.556Z,56.07
2022-12-26T05:58:56.512Z,55.00
2022-12-26T06:01:24.715Z,54.73
2022-12-26T06:03:55.919Z,55.20
2022-12-26T06:06:24.444Z,55.23
2022-12-26T06:08:53.948Z,55.10
2022-12-26T06:11:21.813Z,56.03
2022-12-26T06:13:49.366Z,54.73
2022-12-26T06:16:18.500Z,54.50
2022-12-26T06:18:46.670Z,54.73
2022-12-26T06:21:19.581Z,55.17
2022-12-26T06:23:47.448Z,55.37
2022-12-26T06:26:15.118Z,54.10
2022-12-26T06:28:43.714Z,55.90
2022-12-26T06:31:22.568Z,56.17
2022-12-26T06:34:02.073Z,56.13
2022-12-26T06:36:29.966Z,56.40
2022-12-26T06:38:57.732Z,56.60
2022-12-26T06:41:25.966Z,55.13
2022-12-26T06:43:54.041Z,54.93
2022-12-26T06:46:24.354Z,55.43
2022-12-26T06:48:52.480Z,55.30
2022-12-26T06:51:23.959Z,54.70
2022-12-26T06:53:52.491Z,55.00
2022-12-26T06:56:23.694Z,55.43
2022-12-26T06:59:02.883Z,56.70
2022-12-26T07:01:33.346Z,56.53
2022-12-26T07:04:01.174Z,58.77
2022-12-26T07:06:37.029Z,56.87
2022-12-26T07:09:10.967Z,55.83
2022-12-26T07:11:40.630Z,56.97
2022-12-26T07:14:09.316Z,56.47
2022-12-26T07:16:38.601Z,55.20
2022-12-26T07:19:06.419Z,56.23
2022-12-26T07:21:40.092Z,56.10
2022-12-26T07:24:18.410Z,56.13
2022-12-26T07:26:46.343Z,55.20
2022-12-26T07:29:14.787Z,55.67
2022-12-26T07:31:42.866Z,55.77
2022-12-26T07:34:10.256Z,55.77
2022-12-26T07:36:37.446Z,55.90
2022-12-26T07:39:04.594Z,55.37
2022-12-26T07:41:49.894Z,56.53
2022-12-26T07:44:17.257Z,55.60
2022-12-26T07:46:46.653Z,56.77
2022-12-26T07:49:14.173Z,55.60
2022-12-26T07:51:42.345Z,55.70
2022-12-26T07:54:11.553Z,54.93
2022-12-26T07:56:40.044Z,57.40
2022-12-26T07:59:07.769Z,56.03
2022-12-26T08:01:35.024Z,56.97
2022-12-26T08:04:02.671Z,56.20
2022-12-26T08:06:29.831Z,56.27
2022-12-26T08:08:58.834Z,56.20
2022-12-26T08:11:28.541Z,57.30
2022-12-26T08:13:55.580Z,56.47
2022-12-26T08:16:23.347Z,56.87
2022-12-26T08:18:50.461Z,56.10
2022-12-26T08:21:17.914Z,56.27
2022-12-26T08:23:46.484Z,56.20
2022-12-26T08:26:20.703Z,56.20
2022-12-26T08:28:48.268Z,57.50
2022-12-26T08:31:16.362Z,56.67
2022-12-26T08:33:43.952Z,57.10
2022-12-26T08:36:13.348Z,57.43
2022-12-26T08:38:41.089Z,56.60
2022-12-26T08:41:08.907Z,58.53
2022-12-26T08:44:16.449Z,57.43
2022-12-26T08:46:24.087Z,57.50
2022-12-26T08:48:52.144Z,55.83
2022-12-26T08:51:23.493Z,57.97
2022-12-26T08:53:53.342Z,58.40
2022-12-26T08:56:24.209Z,57.83
2022-12-26T08:58:52.162Z,60.37
2022-12-26T09:01:26.005Z,59.67
2022-12-26T09:03:59.553Z,59.87
2022-12-26T09:06:27.846Z,57.47
2022-12-26T09:08:55.339Z,57.93
2022-12-26T09:11:28.706Z,57.73
2022-12-26T09:13:58.238Z,57.27
2022-12-26T09:16:35.578Z,58.17
2022-12-26T09:19:06.786Z,57.00
2022-12-26T09:21:34.014Z,58.43
2022-12-26T09:24:04.710Z,57.73
2022-12-26T09:26:33.012Z,59.53
2022-12-26T09:29:00.602Z,60.97
2022-12-26T09:31:34.657Z,58.70
2022-12-26T09:34:07.423Z,59.47
2022-12-26T09:36:40.731Z,57.90
2022-12-26T09:39:08.612Z,58.97
2022-12-26T09:41:48.323Z,58.87
2022-12-26T09:44:26.110Z,59.17
2022-12-26T09:47:17.288Z,60.27
2022-12-26T09:50:01.094Z,58.70
2022-12-26T09:52:43.083Z,59.03
2022-12-26T09:55:35.457Z,59.60
2022-12-26T09:58:20.232Z,58.80
2022-12-26T10:00:59.307Z,58.60
2022-12-26T10:03:27.871Z,59.27
2022-12-26T10:06:14.791Z,58.93
2022-12-26T10:09:21.852Z,59.83
2022-12-26T10:11:58.853Z,61.43
2022-12-26T10:15:14.071Z,61.57
2022-12-26T10:17:59.576Z,59.07
2022-12-26T10:21:13.676Z,60.83
2022-12-26T10:23:45.530Z,63.37
2022-12-26T10:26:27.436Z,61.53
2022-12-26T10:28:58.644Z,60.37
2022-12-26T10:31:46.541Z,60.70
2022-12-26T10:34:19.292Z,60.17
2022-12-26T10:37:00.468Z,59.57
2022-12-26T10:39:49.180Z,60.00
2022-12-26T10:42:34.643Z,60.30
2022-12-26T10:45:03.304Z,61.00
2022-12-26T10:47:45.861Z,59.43
2022-12-26T10:50:28.093Z,60.47
2022-12-26T10:52:58.429Z,60.77
2022-12-26T10:55:34.458Z,59.50
2022-12-26T10:58:25.108Z,60.97
2022-12-26T11:00:52.463Z,60.73
2022-12-26T11:03:21.268Z,60.43
2022-12-26T11:06:09.390Z,59.67
2022-12-26T11:08:49.573Z,60.27
2022-12-26T11:11:46.172Z,60.93
2022-12-26T11:14:41.607Z,59.53
2022-12-26T11:17:25.992Z,59.53
2022-12-26T11:20:12.174Z,60.73
2022-12-26T11:22:39.805Z,60.33
2022-12-26T11:25:09.959Z,61.00
2022-12-26T11:27:40.871Z,74.33
2022-12-26T11:30:23.022Z,65.90
2022-12-26T11:33:08.428Z,61.90
2022-12-26T11:36:10.916Z,61.23
2022-12-26T11:39:02.221Z,62.60
2022-12-26T11:41:31.851Z,64.97
2022-12-26T11:44:13.642Z,63.80
2022-12-26T11:46:44.089Z,61.83
2022-12-26T11:49:23.673Z,65.77
2022-12-26T11:51:58.509Z,61.97
2022-12-26T11:54:34.809Z,63.67
2022-12-26T11:57:27.305Z,64.17
2022-12-26T11:59:56.055Z,62.63
2022-12-26T12:02:32.150Z,62.03
2022-12-26T12:05:12.784Z,62.00
2022-12-26T12:08:04.445Z,61.10
2022-12-26T12:11:02.917Z,60.40
2022-12-26T12:13:58.019Z,62.43
2022-12-26T12:16:40.273Z,61.43
2022-12-26T12:19:45.929Z,62.00
2022-12-26T12:22:45.157Z,61.03
2022-12-26T12:25:53.618Z,64.47
2022-12-26T12:28:28.080Z,65.93
2022-12-26T12:31:09.292Z,63.70
2022-12-26T12:33:55.653Z,60.60
2022-12-26T12:37:19.941Z,60.40
2022-12-26T12:40:42.677Z,61.27
2022-12-26T12:43:42.209Z,62.33
2022-12-26T12:46:34.040Z,61.73
2022-12-26T12:49:02.651Z,63.80
2022-12-26T12:51:48.896Z,70.73
2022-12-26T12:54:30.189Z,99.37
2022-12-26T12:57:28.460Z,77.63
2022-12-26T13:00:17.221Z,67.33
2022-12-26T13:02:55.204Z,62.23
2022-12-26T13:05:54.518Z,64.23
2022-12-26T13:09:03.437Z,63.10
2022-12-26T13:11:53.814Z,63.37
2022-12-26T13:14:36.569Z,62.93
2022-12-26T13:17:08.960Z,61.43
2022-12-26T13:20:02.548Z,60.57
2022-12-26T13:23:00.621Z,61.53
2022-12-26T13:25:35.576Z,63.17
2022-12-26T13:28:12.230Z,60.37
2022-12-26T13:30:41.069Z,58.97
2022-12-26T13:33:20.976Z,59.33
2022-12-26T13:36:00.148Z,59.27
2022-12-26T13:38:56.051Z,60.60
2022-12-26T13:41:44.627Z,60.70
2022-12-26T13:44:20.978Z,60.47
2022-12-26T13:46:48.075Z,59.40
2022-12-26T13:49:36.608Z,61.60
2022-12-26T13:52:14.508Z,62.23
2022-12-26T13:54:47.764Z,60.53
2022-12-26T13:57:42.668Z,59.90
2022-12-26T14:00:22.201Z,60.00
2022-12-26T14:03:20.169Z,62.70
2022-12-26T14:06:23.249Z,63.83
2022-12-26T14:09:48.170Z,61.37
2022-12-26T14:12:33.248Z,60.17
2022-12-26T14:15:24.964Z,61.17
2022-12-26T14:18:46.928Z,59.47
2022-12-26T14:21:29.659Z,60.87
2022-12-26T14:24:11.057Z,61.20
2022-12-26T14:26:45.910Z,59.60
2022-12-26T14:29:33.596Z,61.40
2022-12-26T14:32:29.433Z,78.50
2022-12-26T14:35:34.485Z,72.90
2022-12-26T14:38:35.595Z,62.63
2022-12-26T14:41:36.891Z,63.50
2022-12-26T14:44:21.541Z,63.57
2022-12-26T14:46:53.363Z,67.00
2022-12-26T14:49:44.396Z,60.40
2022-12-26T14:52:26.409Z,61.27
2022-12-26T14:54:55.311Z,60.67
2022-12-26T14:57:43.981Z,61.63
2022-12-26T15:00:23.748Z,60.23
2022-12-26T15:03:01.592Z,62.30
2022-12-26T15:05:37.262Z,61.13
2022-12-26T15:08:25.527Z,61.27
2022-12-26T15:10:59.692Z,60.10
2022-12-26T15:13:38.172Z,59.67
2022-12-26T15:16:14.937Z,59.77
2022-12-26T15:19:00.333Z,60.23
2022-12-26T15:22:23.720Z,70.83
2022-12-26T15:25:19.972Z,67.63
2022-12-26T15:28:09.446Z,61.83
2022-12-26T15:30:55.724Z,88.93
2022-12-26T15:33:45.614Z,76.83
2022-12-26T15:36:34.908Z,79.63
2022-12-26T15:39:30.765Z,77.07
2022-12-26T15:42:26.803Z,70.43
2022-12-26T15:45:16.705Z,61.67
2022-12-26T15:48:00.497Z,69.87
2022-12-26T15:50:48.871Z,67.43
2022-12-26T15:53:30.839Z,71.63
2022-12-26T15:56:33.648Z,73.93
2022-12-26T15:59:41.514Z,79.97
2022-12-26T16:02:26.974Z,71.40
2022-12-26T16:05:07.966Z,69.57
2022-12-26T16:07:42.147Z,68.27
2022-12-26T16:10:24.533Z,66.53
2022-12-26T16:13:11.856Z,65.27
2022-12-26T16:15:49.007Z,64.43
2022-12-26T16:18:31.513Z,66.77
2022-12-26T16:21:24.610Z,68.83
2022-12-26T16:23:54.625Z,67.33
2022-12-26T16:26:29.288Z,64.20
2022-12-26T16:28:59.376Z,61.83
2022-12-26T16:31:31.176Z,63.97
2022-12-26T16:34:00.020Z,64.80
2022-12-26T16:36:30.173Z,65.87
2022-12-26T16:38:57.449Z,66.97
2022-12-26T16:41:32.884Z,65.07
2022-12-26T16:44:37.029Z,64.33
2022-12-26T16:47:09.781Z,63.53
2022-12-26T16:49:37.790Z,61.57
2022-12-26T16:52:07.724Z,61.83
2022-12-26T16:54:42.364Z,61.83
2022-12-26T16:57:18.878Z,60.93
2022-12-26T16:59:58.552Z,62.27
2022-12-26T17:02:33.598Z,60.80
2022-12-26T17:05:18.704Z,62.60
2022-12-26T17:07:49.188Z,62.53
2022-12-26T17:10:37.463Z,61.53
2022-12-26T17:13:08.239Z,60.10
2022-12-26T17:15:40.303Z,60.30
2022-12-26T17:18:42.413Z,63.13
2022-12-26T17:21:25.328Z,65.93
2022-12-26T17:24:24.805Z,64.27
2022-12-26T17:27:09.231Z,65.00
2022-12-26T17:30:01.130Z,64.30
2022-12-26T17:32:30.969Z,63.07
2022-12-26T17:35:06.119Z,63.47
2022-12-26T17:37:33.872Z,63.50
2022-12-26T17:40:16.149Z,60.43
2022-12-26T17:42:50.842Z,61.47
2022-12-26T17:45:25.008Z,61.97
2022-12-26T17:47:54.977Z,60.67
2022-12-26T17:50:24.246Z,60.43
2022-12-26T17:52:51.745Z,62.10
2022-12-26T17:55:26.566Z,63.47
2022-12-26T17:57:53.837Z,63.00
2022-12-26T18:00:27.398Z,63.20
2022-12-26T18:02:54.740Z,63.13
2022-12-26T18:05:22.731Z,62.70
2022-12-26T18:07:52.055Z,63.07
2022-12-26T18:10:26.105Z,62.90
2022-12-26T18:12:53.435Z,63.43
2022-12-26T18:15:20.822Z,63.30
2022-12-26T18:17:50.098Z,63.90
2022-12-26T18:20:27.846Z,62.50
2022-12-26T18:22:56.141Z,62.97
2022-12-26T18:25:25.892Z,63.30
2022-12-26T18:27:53.595Z,63.83
2022-12-26T18:30:24.928Z,63.83
2022-12-26T18:32:53.686Z,63.37
2022-12-26T18:35:21.398Z,62.33
2022-12-26T18:37:52.727Z,63.90
2022-12-26T18:40:40.921Z,63.87
2022-12-26T18:43:09.364Z,86.13
2022-12-26T18:45:38.207Z,65.90
2022-12-26T18:48:07.286Z,64.53
2022-12-26T18:50:35.690Z,65.90
2022-12-26T18:53:03.153Z,73.97
2022-12-26T18:55:30.261Z,78.17
2022-12-26T18:57:58.032Z,65.23
2022-12-26T19:00:25.855Z,63.00
2022-12-26T19:02:55.629Z,64.13
2022-12-26T19:05:32.792Z,66.50
2022-12-26T19:08:01.976Z,63.73
2022-12-26T19:10:33.641Z,64.10
2022-12-26T19:13:05.661Z,61.57
2022-12-26T19:15:35.294Z,63.67
2022-12-26T19:18:04.614Z,65.93
2022-12-26T19:20:32.276Z,61.90
2022-12-26T19:22:59.322Z,65.17
2022-12-26T19:25:27.196Z,63.33
2022-12-26T19:27:55.181Z,64.00
2022-12-26T19:30:23.004Z,62.87
2022-12-26T19:32:51.149Z,62.70
2022-12-26T19:35:18.792Z,61.63
2022-12-26T19:37:46.080Z,62.60
2022-12-26T19:40:18.381Z,64.27
2022-12-26T19:42:48.704Z,67.87
2022-12-26T19:45:16.364Z,70.63
2022-12-26T19:47:43.497Z,62.20
2022-12-26T19:50:12.107Z,60.90
2022-12-26T19:52:40.764Z,60.43
2022-12-26T19:55:11.127Z,61.17
2022-12-26T19:57:38.247Z,61.00
2022-12-26T20:00:06.556Z,60.60
2022-12-26T20:02:40.029Z,61.40
2022-12-26T20:05:08.502Z,63.47
2022-12-26T20:07:35.848Z,65.33
2022-12-26T20:10:03.885Z,63.30
2022-12-26T20:12:30.986Z,68.60
2022-12-26T20:14:58.072Z,62.63
2022-12-26T20:17:25.174Z,65.30
2022-12-26T20:19:52.277Z,64.83
2022-12-26T20:22:19.344Z,60.27
2022-12-26T20:24:47.341Z,58.80
2022-12-26T20:27:15.860Z,60.20
2022-12-26T20:29:42.895Z,60.63
2022-12-26T20:32:10.035Z,59.77
2022-12-26T20:34:37.287Z,60.00
2022-12-26T20:37:04.553Z,59.53
2022-12-26T20:39:32.106Z,58.37
2022-12-26T20:41:59.488Z,59.33
2022-12-26T20:44:26.701Z,59.10
2022-12-26T20:46:53.994Z,58.83
2022-12-26T20:49:21.186Z,59.27
2022-12-26T20:51:48.291Z,60.03
2022-12-26T20:54:16.801Z,59.43
2022-12-26T20:56:45.355Z,58.63
2022-12-26T20:59:12.455Z,58.30
2022-12-26T21:01:40.457Z,59.83
2022-12-26T21:04:10.370Z,58.53
2022-12-26T21:06:38.314Z,58.57
2022-12-26T21:09:06.784Z,58.73
2022-12-26T21:11:38.322Z,58.93
2022-12-26T21:14:11.011Z,60.33
2022-12-26T21:17:01.516Z,60.13
2022-12-26T21:19:29.822Z,64.93
2022-12-26T21:21:57.572Z,61.03
2022-12-26T21:24:33.707Z,62.97
2022-12-26T21:27:01.068Z,64.53
2022-12-26T21:29:33.048Z,65.53
2022-12-26T21:32:02.583Z,62.20
2022-12-26T21:34:32.368Z,64.07
2022-12-26T21:37:18.888Z,60.03
2022-12-26T21:39:47.237Z,59.40
2022-12-26T21:42:14.427Z,59.60
2022-12-26T21:44:41.556Z,60.30
2022-12-26T21:47:09.067Z,60.10
2022-12-26T21:49:37.399Z,60.87
2022-12-26T21:52:06.845Z,59.87
2022-12-26T21:54:53.131Z,60.73
2022-12-26T21:57:20.911Z,59.73
2022-12-26T21:59:56.933Z,60.13
2022-12-26T22:02:48.342Z,60.17
2022-12-26T22:05:17.788Z,59.80
2022-12-26T22:07:45.775Z,59.13
2022-12-26T22:10:33.546Z,59.57
2022-12-26T22:13:01.764Z,59.87
2022-12-26T22:15:47.264Z,60.10
2022-12-26T22:18:14.482Z,59.83
2022-12-26T22:20:41.568Z,59.73
2022-12-26T22:23:08.599Z,59.73
2022-12-26T22:25:35.653Z,62.10
2022-12-26T22:28:02.886Z,60.40
2022-12-26T22:30:29.939Z,63.73
2022-12-26T22:32:56.988Z,63.83
2022-12-26T22:35:24.036Z,64.27
2022-12-26T22:37:51.303Z,60.87
2022-12-26T22:40:18.428Z,59.67
2022-12-26T22:42:45.480Z,60.70
2022-12-26T22:45:12.499Z,60.80
2022-12-26T22:47:39.554Z,62.03
2022-12-26T22:50:07.848Z,59.57
2022-12-26T22:52:34.972Z,59.83
2022-12-26T22:55:02.030Z,60.70
2022-12-26T22:57:29.062Z,60.77
2022-12-26T23:00:11.625Z,60.30
2022-12-26T23:02:39.048Z,60.07
2022-12-26T23:05:08.679Z,59.50
2022-12-26T23:07:36.154Z,60.53
2022-12-26T23:10:05.725Z,59.33
2022-12-26T23:12:45.529Z,59.13
2022-12-26T23:15:23.234Z,59.73
2022-12-26T23:18:35.132Z,59.90
2022-12-26T23:21:40.424Z,60.63
2022-12-26T23:24:30.041Z,59.63
2022-12-26T23:27:27.312Z,58.67
2022-12-26T23:30:14.238Z,59.67
2022-12-26T23:32:43.282Z,60.17
2022-12-26T23:35:12.134Z,59.40
2022-12-26T23:37:41.391Z,59.60
2022-12-26T23:40:11.172Z,58.30
2022-12-26T23:42:38.403Z,59.10
2022-12-26T23:45:06.644Z,59.40
2022-12-26T23:47:37.732Z,58.90
2022-12-26T23:50:07.326Z,59.10
2022-12-26T23:52:34.548Z,59.17
2022-12-26T23:55:01.851Z,59.10
2022-12-26T23:57:29.024Z,59.40
2022-12-26T23:59:56.116Z,58.37
